createdAt,value
2023-03-25T00:02:23.468Z,59.87
2023-03-25T00:04:53.273Z,59.87
2023-03-25T00:07:22.482Z,59.81
2023-03-25T00:09:52.933Z,59.83
2023-03-25T00:12:22.221Z,59.73
2023-03-25T00:14:58.271Z,59.71
2023-03-25T00:17:29.934Z,59.60
2023-03-25T00:20:00.506Z,59.46
2023-03-25T00:22:30.657Z,59.27
2023-03-25T00:24:59.112Z,59.19
2023-03-25T00:27:28.183Z,58.98
2023-03-25T00:29:57.913Z,58.70
2023-03-25T00:32:28.829Z,58.61
2023-03-25T00:34:57.454Z,58.54
2023-03-25T00:37:26.853Z,58.75
2023-03-25T00:39:56.096Z,58.82
2023-03-25T00:42:26.852Z,58.53
2023-03-25T00:44:55.922Z,58.53
2023-03-25T00:47:24.667Z,58.27
2023-03-25T00:49:53.301Z,57.60
2023-03-25T00:52:22.803Z,57.33
2023-03-25T00:54:52.930Z,56.89
2023-03-25T00:57:23.082Z,57.00
2023-03-25T00:59:53.522Z,57.15
2023-03-25T01:02:24.135Z,56.90
2023-03-25T01:04:53.638Z,56.78
2023-03-25T01:07:24.620Z,56.91
2023-03-25T01:09:54.392Z,57.28
2023-03-25T01:12:23.527Z,57.13
2023-03-25T01:14:53.085Z,56.76
2023-03-25T01:17:21.975Z,56.44
2023-03-25T01:19:50.580Z,56.37
2023-03-25T01:22:20.700Z,56.17
2023-03-25T01:24:49.914Z,56.14
2023-03-25T01:27:19.625Z,56.56
2023-03-25T01:29:48.435Z,56.41
2023-03-25T01:32:17.166Z,56.38
2023-03-25T01:34:46.665Z,56.46
2023-03-25T01:37:15.792Z,56.41
2023-03-25T01:39:45.553Z,56.26
2023-03-25T01:42:15.195Z,56.37
2023-03-25T01:44:52.403Z,56.16
2023-03-25T01:47:22.662Z,56.10
2023-03-25T01:49:53.800Z,56.14
2023-03-25T01:52:24.929Z,56.00
2023-03-25T01:54:54.119Z,56.09
2023-03-25T01:57:23.743Z,56.25
2023-03-25T01:59:53.621Z,55.96
2023-03-25T02:02:26.258Z,55.89
2023-03-25T02:05:01.112Z,55.81
2023-03-25T02:07:33.103Z,55.83
2023-03-25T02:10:07.572Z,56.09
2023-03-25T02:12:36.324Z,56.20
2023-03-25T02:15:08.084Z,55.91
2023-03-25T02:17:59.090Z,55.86
2023-03-25T02:21:19.482Z,55.81
2023-03-25T02:23:59.032Z,55.89
2023-03-25T02:26:59.680Z,56.22
2023-03-25T02:29:59.041Z,56.06
2023-03-25T02:33:05.505Z,55.96
2023-03-25T02:36:09.528Z,55.76
2023-03-25T02:39:12.354Z,55.89
2023-03-25T02:42:00.161Z,55.96
2023-03-25T02:44:46.984Z,55.64
2023-03-25T02:47:18.808Z,55.96
2023-03-25T02:49:53.709Z,55.77
2023-03-25T02:52:28.989Z,55.75
2023-03-25T02:55:03.045Z,55.78
2023-03-25T02:57:34.672Z,55.66
2023-03-25T03:00:15.799Z,55.34
2023-03-25T03:02:55.339Z,55.21
2023-03-25T03:05:29.941Z,55.13
2023-03-25T03:08:33.571Z,55.12
2023-03-25T03:11:32.611Z,55.06
2023-03-25T03:14:46.646Z,54.62
2023-03-25T03:17:31.439Z,54.59
2023-03-25T03:20:37.099Z,54.70
2023-03-25T03:23:27.904Z,54.80
2023-03-25T03:26:21.669Z,55.26
2023-03-25T03:29:03.000Z,55.84
2023-03-25T03:32:05.934Z,56.37
2023-03-25T03:34:27.307Z,56.68
2023-03-25T03:36:56.270Z,56.96
2023-03-25T03:39:36.549Z,57.56
2023-03-25T03:42:10.416Z,57.55
2023-03-25T03:44:40.470Z,57.53
2023-03-25T03:47:12.998Z,57.72
2023-03-25T03:49:47.363Z,58.05
2023-03-25T03:52:25.553Z,58.13
2023-03-25T03:55:20.838Z,58.49
2023-03-25T03:57:57.708Z,57.86
2023-03-25T04:00:34.318Z,57.98
2023-03-25T04:03:17.177Z,57.94
2023-03-25T04:05:52.238Z,58.35
2023-03-25T04:08:28.392Z,57.80
2023-03-25T04:11:04.067Z,57.59
2023-03-25T04:13:36.341Z,58.15
2023-03-25T04:16:06.169Z,58.36
2023-03-25T04:18:36.203Z,58.08
2023-03-25T04:21:06.572Z,58.05
2023-03-25T04:23:37.425Z,57.98
2023-03-25T04:26:07.272Z,58.11
2023-03-25T04:28:37.158Z,58.13
2023-03-25T04:31:14.601Z,57.67
2023-03-25T04:33:48.228Z,57.58
2023-03-25T04:36:17.042Z,57.95
2023-03-25T04:38:45.753Z,58.02
2023-03-25T04:41:15.427Z,57.75
2023-03-25T04:43:44.955Z,57.58
2023-03-25T04:46:16.218Z,57.60
2023-03-25T04:48:47.259Z,57.80
2023-03-25T04:51:16.967Z,57.51
2023-03-25T04:53:47.337Z,58.03
2023-03-25T04:56:19.399Z,57.62
2023-03-25T04:58:48.164Z,58.12
2023-03-25T05:01:30.555Z,58.20
2023-03-25T05:04:06.693Z,58.31
2023-03-25T05:06:41.764Z,57.55
2023-03-25T05:09:15.327Z,57.70
2023-03-25T05:11:44.197Z,57.71
2023-03-25T05:14:16.626Z,57.42
2023-03-25T05:16:46.002Z,57.32
2023-03-25T05:19:15.413Z,57.37
2023-03-25T05:21:43.990Z,57.19
2023-03-25T05:24:13.326Z,57.01
2023-03-25T05:26:42.307Z,57.12
2023-03-25T05:29:14.510Z,57.03
2023-03-25T05:31:45.349Z,57.13
2023-03-25T05:34:17.325Z,57.08
2023-03-25T05:36:47.672Z,57.02
2023-03-25T05:39:17.387Z,56.96
2023-03-25T05:41:46.309Z,56.99
2023-03-25T05:44:17.709Z,56.90
2023-03-25T05:46:48.639Z,56.91
2023-03-25T05:49:17.530Z,56.96
2023-03-25T05:51:49.531Z,56.78
2023-03-25T05:54:19.812Z,56.90
2023-03-25T05:56:48.773Z,56.80
2023-03-25T05:59:17.754Z,56.74
2023-03-25T06:01:46.539Z,56.66
2023-03-25T06:04:16.820Z,56.89
2023-03-25T06:06:45.726Z,56.89
2023-03-25T06:09:14.510Z,57.17
2023-03-25T06:11:43.704Z,57.27
2023-03-25T06:14:13.079Z,57.22
2023-03-25T06:16:44.071Z,56.87
2023-03-25T06:19:16.573Z,56.70
2023-03-25T06:21:48.817Z,56.65
2023-03-25T06:24:21.848Z,56.62
2023-03-25T06:26:51.453Z,56.57
2023-03-25T06:29:20.661Z,56.61
2023-03-25T06:31:49.344Z,56.79
2023-03-25T06:34:17.914Z,56.72
2023-03-25T06:36:49.890Z,56.80
2023-03-25T06:39:19.121Z,56.79
2023-03-25T06:41:49.425Z,56.56
2023-03-25T06:44:24.570Z,56.67
2023-03-25T06:47:06.507Z,56.71
2023-03-25T06:49:43.172Z,56.67
2023-03-25T06:52:12.869Z,56.83
2023-03-25T06:54:44.284Z,56.96
2023-03-25T06:57:14.427Z,56.96
2023-03-25T06:59:47.225Z,56.80
2023-03-25T07:02:15.892Z,56.81
2023-03-25T07:04:46.233Z,56.66
2023-03-25T07:07:15.356Z,56.49
2023-03-25T07:09:44.671Z,56.22
2023-03-25T07:12:13.369Z,56.14
2023-03-25T07:14:44.309Z,56.01
2023-03-25T07:17:13.570Z,55.72
2023-03-25T07:19:43.757Z,55.71
2023-03-25T07:22:13.873Z,55.59
2023-03-25T07:24:43.509Z,55.49
2023-03-25T07:27:12.778Z,55.28
2023-03-25T07:29:42.211Z,55.21
2023-03-25T07:32:11.273Z,55.01
2023-03-25T07:34:42.703Z,54.92
2023-03-25T07:37:11.909Z,54.59
2023-03-25T07:39:40.934Z,54.28
2023-03-25T07:42:10.569Z,54.14
2023-03-25T07:44:58.056Z,54.04
2023-03-25T07:47:27.245Z,53.81
2023-03-25T07:49:56.044Z,53.58
2023-03-25T07:52:24.698Z,53.57
2023-03-25T07:54:53.363Z,53.56
2023-03-25T07:57:23.282Z,53.29
2023-03-25T07:59:53.689Z,53.29
2023-03-25T08:02:22.677Z,53.00
2023-03-25T08:04:53.400Z,52.96
2023-03-25T08:07:23.828Z,52.97
2023-03-25T08:09:53.347Z,53.05
2023-03-25T08:12:23.344Z,52.99
2023-03-25T08:14:53.554Z,52.95
2023-03-25T08:17:23.276Z,52.84
2023-03-25T08:19:51.964Z,52.91
2023-03-25T08:22:20.821Z,52.89
2023-03-25T08:24:51.394Z,52.52
2023-03-25T08:27:20.922Z,52.42
2023-03-25T08:29:52.649Z,52.29
2023-03-25T08:32:21.801Z,52.26
2023-03-25T08:34:51.038Z,52.08
2023-03-25T08:37:22.102Z,52.01
2023-03-25T08:39:51.178Z,51.90
2023-03-25T08:42:20.931Z,51.91
2023-03-25T08:44:50.289Z,52.04
2023-03-25T08:47:21.931Z,52.00
2023-03-25T08:49:53.052Z,51.99
2023-03-25T08:52:21.991Z,51.84
2023-03-25T08:54:51.911Z,51.86
2023-03-25T08:57:21.674Z,51.88
2023-03-25T08:59:51.521Z,51.76
2023-03-25T09:02:20.318Z,51.78
2023-03-25T09:04:50.897Z,52.07
2023-03-25T09:07:22.202Z,51.96
2023-03-25T09:09:50.676Z,51.89
2023-03-25T09:12:19.834Z,51.78
2023-03-25T09:14:49.609Z,51.94
2023-03-25T09:17:18.102Z,52.00
2023-03-25T09:19:47.750Z,52.38
2023-03-25T09:22:16.271Z,52.34
2023-03-25T09:24:46.691Z,52.22
2023-03-25T09:27:15.753Z,52.15
2023-03-25T09:29:44.376Z,52.15
2023-03-25T09:32:14.941Z,52.16
2023-03-25T09:34:43.636Z,52.32
2023-03-25T09:37:12.495Z,52.34
2023-03-25T09:39:42.064Z,52.33
2023-03-25T09:42:28.009Z,51.90
2023-03-25T09:45:19.066Z,51.60
2023-03-25T09:48:23.374Z,51.59
2023-03-25T09:50:52.043Z,51.67
2023-03-25T09:53:29.208Z,51.87
2023-03-25T09:55:58.147Z,51.69
2023-03-25T09:58:47.011Z,51.80
2023-03-25T10:01:36.281Z,51.90
2023-03-25T10:04:25.614Z,52.02
2023-03-25T10:07:33.214Z,52.17
2023-03-25T10:10:16.842Z,52.30
2023-03-25T10:13:15.212Z,52.55
2023-03-25T10:16:15.138Z,52.75
2023-03-25T10:19:26.658Z,52.87
2023-03-25T10:22:07.004Z,53.10
2023-03-25T10:24:49.311Z,53.28
2023-03-25T10:27:41.262Z,53.64
2023-03-25T10:30:30.650Z,53.54
2023-03-25T10:33:04.036Z,53.61
2023-03-25T10:35:40.535Z,53.67
2023-03-25T10:38:24.529Z,53.62
2023-03-25T10:41:27.634Z,53.73
2023-03-25T10:43:56.953Z,53.83
2023-03-25T10:46:48.449Z,54.03
2023-03-25T10:49:21.951Z,53.90
2023-03-25T10:51:53.112Z,53.92
2023-03-25T10:54:31.777Z,53.91
2023-03-25T10:57:07.691Z,53.86
2023-03-25T10:59:45.288Z,53.85
2023-03-25T11:02:22.777Z,53.89
2023-03-25T11:04:54.950Z,53.95
2023-03-25T11:07:35.054Z,53.93
2023-03-25T11:10:29.195Z,53.79
2023-03-25T11:12:59.695Z,53.59
2023-03-25T11:15:38.753Z,53.63
2023-03-25T11:18:31.624Z,53.39
2023-03-25T11:21:08.839Z,53.15
2023-03-25T11:23:49.590Z,52.97
2023-03-25T11:26:33.879Z,52.70
2023-03-25T11:29:17.322Z,52.40
2023-03-25T11:31:48.865Z,52.03
2023-03-25T11:34:23.946Z,51.89
2023-03-25T11:36:57.312Z,51.71
2023-03-25T11:39:39.432Z,51.53
2023-03-25T11:42:28.677Z,51.20
2023-03-25T11:44:59.207Z,50.97
2023-03-25T11:47:34.928Z,51.13
2023-03-25T11:50:05.379Z,51.08
2023-03-25T11:52:46.885Z,51.51
2023-03-25T11:55:19.923Z,50.93
2023-03-25T11:57:49.286Z,50.97
2023-03-25T12:00:40.672Z,50.93
2023-03-25T12:03:22.453Z,50.80
2023-03-25T12:06:13.808Z,50.86
2023-03-25T12:08:54.208Z,51.01
2023-03-25T12:11:29.477Z,50.91
2023-03-25T12:14:12.790Z,50.90
2023-03-25T12:17:04.479Z,50.57
2023-03-25T12:19:44.650Z,50.72
2023-03-25T12:22:40.433Z,50.52
2023-03-25T12:25:38.984Z,50.58
2023-03-25T12:28:42.387Z,50.78
2023-03-25T12:31:54.929Z,50.78
2023-03-25T12:35:14.540Z,50.98
2023-03-25T12:38:13.041Z,51.38
2023-03-25T12:40:53.621Z,51.68
2023-03-25T12:43:28.276Z,53.58
2023-03-25T12:46:25.266Z,55.19
2023-03-25T12:49:23.286Z,55.95
2023-03-25T12:52:08.849Z,56.42
2023-03-25T12:54:52.580Z,57.00
2023-03-25T12:57:54.513Z,57.89
2023-03-25T13:00:45.576Z,58.85
2023-03-25T13:03:44.336Z,59.11
2023-03-25T13:06:24.551Z,59.14
2023-03-25T13:09:32.950Z,60.00
2023-03-25T13:12:20.650Z,59.83
2023-03-25T13:15:08.591Z,59.65
2023-03-25T13:17:47.187Z,59.67
2023-03-25T13:20:17.491Z,59.39
2023-03-25T13:22:52.773Z,59.35
2023-03-25T13:25:46.706Z,59.27
2023-03-25T13:28:25.545Z,58.99
2023-03-25T13:30:55.115Z,59.32
2023-03-25T13:33:31.941Z,58.77
2023-03-25T13:36:30.059Z,58.77
2023-03-25T13:39:06.588Z,59.20
2023-03-25T13:41:46.677Z,59.54
2023-03-25T13:44:24.828Z,59.28
2023-03-25T13:47:14.323Z,59.28
2023-03-25T13:50:05.989Z,58.97
2023-03-25T13:52:39.306Z,58.70
2023-03-25T13:55:17.983Z,58.10
2023-03-25T13:58:03.612Z,57.65
2023-03-25T14:01:06.895Z,57.45
2023-03-25T14:04:05.105Z,57.31
2023-03-25T14:07:24.768Z,57.09
2023-03-25T14:10:10.873Z,57.19
2023-03-25T14:12:54.890Z,57.31
2023-03-25T14:15:40.154Z,57.52
2023-03-25T14:18:17.806Z,57.60
2023-03-25T14:20:47.841Z,57.64
2023-03-25T14:23:19.767Z,57.36
2023-03-25T14:25:57.129Z,57.09
2023-03-25T14:28:39.526Z,57.07
2023-03-25T14:31:22.196Z,57.06
2023-03-25T14:34:06.529Z,57.03
2023-03-25T14:36:51.441Z,57.11
2023-03-25T14:39:29.745Z,57.13
2023-03-25T14:42:07.316Z,56.97
2023-03-25T14:44:45.861Z,56.96
2023-03-25T14:47:29.631Z,57.06
2023-03-25T14:50:21.943Z,57.15
2023-03-25T14:53:04.835Z,57.29
2023-03-25T14:55:46.637Z,57.27
2023-03-25T14:58:24.661Z,57.26
2023-03-25T15:01:10.026Z,57.41
2023-03-25T15:03:43.152Z,57.47
2023-03-25T15:06:16.329Z,57.48
2023-03-25T15:08:56.734Z,57.79
2023-03-25T15:11:33.629Z,58.21
2023-03-25T15:14:06.565Z,58.31
2023-03-25T15:16:47.196Z,58.49
2023-03-25T15:19:20.294Z,58.56
2023-03-25T15:22:06.567Z,58.61
2023-03-25T15:24:37.119Z,58.29
2023-03-25T15:27:12.830Z,58.17
2023-03-25T15:30:11.798Z,58.21
2023-03-25T15:33:26.025Z,58.25
2023-03-25T15:36:21.801Z,58.90
2023-03-25T15:39:32.782Z,58.84
2023-03-25T15:42:24.149Z,58.99
2023-03-25T15:45:16.746Z,59.22
2023-03-25T15:48:13.937Z,59.24
2023-03-25T15:51:16.692Z,59.40
2023-03-25T15:54:00.296Z,59.51
2023-03-25T15:56:34.165Z,60.22
2023-03-25T15:59:13.832Z,60.27
2023-03-25T16:01:44.026Z,60.40
2023-03-25T16:04:23.721Z,60.54
2023-03-25T16:06:53.349Z,61.12
2023-03-25T16:09:28.719Z,61.02
2023-03-25T16:12:01.783Z,61.03
2023-03-25T16:14:32.572Z,61.17
2023-03-25T16:17:04.925Z,61.92
2023-03-25T16:19:42.383Z,62.15
2023-03-25T16:22:37.594Z,62.05
2023-03-25T16:25:10.085Z,61.83
2023-03-25T16:27:46.629Z,61.72
2023-03-25T16:30:39.462Z,61.68
2023-03-25T16:33:13.526Z,61.79
2023-03-25T16:35:50.840Z,61.89
2023-03-25T16:38:21.402Z,61.95
2023-03-25T16:40:50.469Z,62.16
2023-03-25T16:43:27.186Z,62.57
2023-03-25T16:46:01.651Z,63.02
2023-03-25T16:48:36.699Z,63.18
2023-03-25T16:51:30.023Z,63.49
2023-03-25T16:54:00.396Z,63.58
2023-03-25T16:56:31.080Z,63.92
2023-03-25T16:59:07.464Z,64.46
2023-03-25T17:01:42.130Z,64.76
2023-03-25T17:04:25.067Z,65.09
2023-03-25T17:07:00.902Z,65.30
2023-03-25T17:09:38.095Z,65.49
2023-03-25T17:12:11.246Z,65.63
2023-03-25T17:14:44.814Z,65.69
2023-03-25T17:17:46.373Z,65.78
2023-03-25T17:20:22.816Z,65.90
2023-03-25T17:23:08.083Z,66.18
2023-03-25T17:25:54.815Z,66.46
2023-03-25T17:28:34.864Z,66.61
2023-03-25T17:31:25.813Z,66.85
2023-03-25T17:34:01.900Z,67.12
2023-03-25T17:36:32.543Z,67.35
2023-03-25T17:39:03.635Z,67.68
2023-03-25T17:41:38.254Z,68.01
2023-03-25T17:44:06.721Z,68.37
2023-03-25T17:46:37.115Z,68.82
2023-03-25T17:49:16.886Z,69.48
2023-03-25T17:51:46.430Z,70.11
2023-03-25T17:54:15.973Z,70.72
2023-03-25T17:56:46.913Z,71.16
2023-03-25T17:59:20.835Z,71.55
2023-03-25T18:01:50.358Z,72.14
2023-03-25T18:04:21.091Z,72.74
2023-03-25T18:06:51.560Z,72.99
2023-03-25T18:09:25.004Z,72.89
2023-03-25T18:11:56.089Z,73.08
2023-03-25T18:14:25.703Z,73.29
2023-03-25T18:16:55.331Z,73.57
2023-03-25T18:19:30.096Z,73.73
2023-03-25T18:22:09.911Z,73.85
2023-03-25T18:24:33.739Z,74.19
2023-03-25T18:27:04.207Z,74.58
2023-03-25T18:29:37.370Z,74.83
2023-03-25T18:32:06.520Z,74.98
2023-03-25T18:34:36.277Z,75.16
2023-03-25T18:37:05.267Z,75.35
2023-03-25T18:39:34.008Z,75.63
2023-03-25T18:42:03.084Z,75.91
2023-03-25T18:44:31.706Z,76.17
2023-03-25T18:47:00.418Z,76.39
2023-03-25T18:49:29.272Z,76.62
2023-03-25T18:51:59.374Z,76.89
2023-03-25T18:54:28.356Z,77.22
2023-03-25T18:56:57.329Z,77.61
2023-03-25T18:59:27.951Z,78.16
2023-03-25T19:01:57.899Z,78.88
2023-03-25T19:04:29.199Z,79.40
2023-03-25T19:07:00.678Z,79.86
2023-03-25T19:09:31.712Z,80.24
2023-03-25T19:12:02.873Z,80.64
2023-03-25T19:14:33.396Z,81.02
2023-03-25T19:17:04.368Z,81.40
2023-03-25T19:19:32.927Z,81.90
2023-03-25T19:22:01.627Z,81.99
2023-03-25T19:24:30.848Z,82.24
2023-03-25T19:27:00.394Z,82.72
2023-03-25T19:29:30.635Z,83.44
2023-03-25T19:31:59.346Z,84.28
2023-03-25T19:34:30.148Z,85.00
2023-03-25T19:37:01.198Z,85.68
2023-03-25T19:39:31.467Z,86.21
2023-03-25T19:42:03.992Z,86.63
2023-03-25T19:44:33.325Z,87.08
2023-03-25T19:47:02.518Z,87.47
2023-03-25T19:49:39.891Z,87.74
2023-03-25T19:52:04.728Z,88.00
2023-03-25T19:54:33.999Z,88.23
2023-03-25T19:57:04.512Z,88.54
2023-03-25T19:59:36.810Z,88.87
2023-03-25T20:02:06.931Z,89.09
2023-03-25T20:04:36.414Z,89.24
2023-03-25T20:07:05.134Z,89.35
2023-03-25T20:09:35.573Z,89.06
2023-03-25T20:12:04.747Z,88.53
2023-03-25T20:14:36.709Z,88.33
2023-03-25T20:17:05.984Z,88.05
2023-03-25T20:19:36.785Z,88.14
2023-03-25T20:22:18.475Z,88.22
2023-03-25T20:24:39.771Z,88.38
2023-03-25T20:27:08.971Z,88.49
2023-03-25T20:29:38.904Z,88.46
2023-03-25T20:32:07.689Z,88.47
2023-03-25T20:34:39.211Z,88.57
2023-03-25T20:37:12.016Z,88.85
2023-03-25T20:39:46.740Z,89.21
2023-03-25T20:42:16.712Z,89.56
2023-03-25T20:44:45.806Z,89.82
2023-03-25T20:47:14.803Z,90.12
2023-03-25T20:49:43.327Z,90.53
2023-03-25T20:52:14.071Z,90.91
2023-03-25T20:54:42.824Z,91.20
2023-03-25T20:57:12.787Z,91.45
2023-03-25T20:59:43.087Z,91.89
2023-03-25T21:02:12.442Z,92.29
2023-03-25T21:04:41.750Z,92.75
2023-03-25T21:07:11.902Z,92.96
2023-03-25T21:09:41.073Z,92.91
2023-03-25T21:12:11.307Z,92.66
2023-03-25T21:14:41.705Z,92.01
2023-03-25T21:17:11.971Z,90.82
2023-03-25T21:19:40.905Z,89.87
2023-03-25T21:22:09.902Z,88.74
2023-03-25T21:24:41.181Z,87.89
2023-03-25T21:27:09.818Z,87.07
2023-03-25T21:29:38.772Z,86.32
2023-03-25T21:32:10.721Z,85.65
2023-03-25T21:34:40.358Z,85.16
2023-03-25T21:37:09.330Z,84.58
2023-03-25T21:39:38.119Z,84.06
2023-03-25T21:42:10.993Z,83.95
2023-03-25T21:44:40.454Z,83.88
2023-03-25T21:47:09.511Z,83.96
2023-03-25T21:49:38.399Z,83.90
2023-03-25T21:52:08.793Z,84.24
2023-03-25T21:54:37.546Z,84.47
2023-03-25T21:57:07.575Z,84.71
2023-03-25T21:59:36.608Z,85.07
2023-03-25T22:02:05.776Z,85.20
2023-03-25T22:04:34.726Z,85.37
2023-03-25T22:07:05.398Z,85.57
2023-03-25T22:09:35.521Z,85.73
2023-03-25T22:12:04.986Z,85.84
2023-03-25T22:14:35.935Z,85.94
2023-03-25T22:17:06.247Z,86.05
2023-03-25T22:19:35.269Z,86.13
2023-03-25T22:22:07.370Z,86.30
2023-03-25T22:24:37.289Z,86.38
2023-03-25T22:27:06.116Z,86.42
2023-03-25T22:29:36.356Z,86.51
2023-03-25T22:32:06.696Z,86.55
2023-03-25T22:34:35.224Z,86.53
2023-03-25T22:37:04.174Z,86.49
2023-03-25T22:39:33.119Z,86.72
2023-03-25T22:42:02.686Z,86.83
2023-03-25T22:44:32.223Z,87.04
2023-03-25T22:47:03.010Z,87.24
2023-03-25T22:49:33.075Z,87.40
2023-03-25T22:52:01.962Z,87.49
2023-03-25T22:54:31.456Z,87.68
2023-03-25T22:57:01.840Z,87.94
2023-03-25T22:59:31.776Z,88.21
2023-03-25T23:02:01.677Z,88.38
2023-03-25T23:04:30.824Z,88.69
2023-03-25T23:07:07.683Z,88.84
2023-03-25T23:09:41.740Z,89.01
2023-03-25T23:12:22.626Z,89.25
2023-03-25T23:14:55.443Z,89.40
2023-03-25T23:17:25.109Z,89.65
2023-03-25T23:19:53.665Z,89.67
2023-03-25T23:22:24.917Z,89.84
2023-03-25T23:24:54.401Z,89.92
2023-03-25T23:27:24.678Z,90.03
2023-03-25T23:29:53.336Z,90.11
2023-03-25T23:32:22.031Z,90.19
2023-03-25T23:34:51.303Z,90.28
2023-03-25T23:37:19.896Z,90.33
2023-03-25T23:39:48.620Z,90.30
2023-03-25T23:42:18.114Z,90.27
2023-03-25T23:44:48.420Z,90.30
2023-03-25T23:47:17.101Z,90.40
2023-03-25T23:49:47.706Z,90.36
2023-03-25T23:52:17.054Z,90.17
2023-03-25T23:54:48.340Z,90.15
2023-03-25T23:57:17.547Z,90.04
2023-03-25T23:59:46.664Z,89.71
